Ammo Dump (231) Station Data

Red Flag Warning: No
Fire Weather Zone: 250
SDGE Region: North Coast
Lat/Lon: 33.357/-117.276

Observations

Time Wind Speed/Gust Temp(F) RH Fuel Moist Fuel Temp(F) Dewpt(F) Tmax(F) Tmin(F) Accum Precip 10-min Precip SL Press(mb)
4/29 11:50pm 80 2 G 4 57° 40% - - 33° 83.7° 53.6° - - -
4/29 11:40pm 182 1 G 3 56° 44% - - 34° 83.7° 53.6° - - -
4/29 11:30pm 131 1 G 3 56° 43% - - 34° 83.7° 53.6° - - -
4/29 11:20pm 135 2 G 3 55° 45% - - 34° 83.7° 53.6° - - -
4/29 11:10pm 129 2 G 3 56° 45% - - 34° 83.7° 53.6° - - -
4/29 11:00pm 121 1 G 3 56° 45% - - 35° 83.7° 53.6° - - -
4/29 10:50pm 155 2 G 3 56° 45% - - 35° 83.7° 53.6° - - -
4/29 10:40pm 123 2 G 4 55° 46% - - 35° 83.7° 53.6° - - -
4/29 10:30pm 99 2 G 3 55° 47% - - 35° 83.7° 53.6° - - -
4/29 10:20pm 161 1 G 2 57° 45% - - 36° 83.7° 53.6° - - -
4/29 10:10pm 123 2 G 3 59° 41% - - 36° 83.7° 53.6° - - -
4/29 10:00pm 108 2 G 4 60° 40% - - 36° 83.7° 53.6° - - -
4/29 9:50pm 99 3 G 5 59° 41% - - 36° 83.7° 53.6° - - -
4/29 9:40pm 116 1 G 4 59° 42% - - 36° 83.7° 53.6° - - -
4/29 9:30pm 125 1 G 3 60° 41% - - 36° 83.7° 53.6° - - -
4/29 9:20pm 155 1 G 3 61° 40% - - 36° 83.7° 53.6° - - -
4/29 9:10pm 134 1 G 3 61° 39% - - 36° 83.7° 53.6° - - -
4/29 9:00pm 140 3 G 5 62° 37% - - 35° 83.7° 53.6° - - -
4/29 8:50pm 136 2 G 6 62° 34% - - 34° 83.7° 53.6° - - -
4/29 8:40pm 134 2 G 5 63° 28% - - 30° 83.7° 53.6° - - -
4/29 8:30pm 135 2 G 4 65° 23% - - 26° 83.7° 53.6° - - -
4/29 8:20pm 116 3 G 6 65° 23% - - 26° 83.7° 53.6° - - -
4/29 8:10pm 104 4 G 7 66° 22% - - 26° 83.7° 53.6° - - -
4/29 8:00pm 222 3 G 6 68° 21% - - 26° 83.7° 53.6° - - -
4/29 7:50pm 219 5 G 9 68° 21% - - 26° 83.7° 53.6° - - -
4/29 7:40pm 222 6 G 10 69° 21% - - 27° 83.7° 53.6° - - -
4/29 7:30pm 222 7 G 12 69° 21% - - 27° 83.7° 53.6° - - -
4/29 7:20pm 222 8 G 13 70° 21% - - 28° 83.7° 53.6° - - -
4/29 7:10pm 221 9 G 14 70° 22% - - 30° 83.7° 53.6° - - -
4/29 7:00pm 218 7 G 13 71° 23% - - 32° 83.7° 53.6° - - -
4/29 6:50pm 232 8 G 12 72° 22% - - 31° 83.7° 53.6° - - -
4/29 6:40pm 234 8 G 13 74° 20% - - 30° 83.7° 53.6° - - -
4/29 6:30pm 233 8 G 11 74° 22% - - 32° 83.7° 53.6° - - -
4/29 6:20pm 236 9 G 13 75° 22% - - 33° 83.7° 53.6° - - -
4/29 6:10pm 237 9 G 13 76° 19% - - 31° 83.7° 53.6° - - -
4/29 6:00pm 253 10 G 15 76° 17% - - 29° 83.7° 53.6° - - -
4/29 5:50pm 250 11 G 19 76° 17% - - 28° 83.7° 53.6° - - -
4/29 5:40pm 254 11 G 19 77° 16% - - 27° 83.7° 53.6° - - -
4/29 5:30pm 259 12 G 19 77° 15% - - 25° 83.7° 53.6° - - -
4/29 5:20pm 264 11 G 18 77° 14% - - 24° 83.7° 53.6° - - -
4/29 5:10pm 263 12 G 19 78° 14% - - 25° 83.7° 53.6° - - -
4/29 5:00pm 264 11 G 18 78° 15% - - 28° 83.7° 53.6° - - -
4/29 4:50pm 266 10 G 17 79° 16% - - 29° 83.7° 53.6° - - -
4/29 4:40pm 255 10 G 15 79° 15% - - 28° 83.7° 53.6° - - -
4/29 4:30pm 250 11 G 20 79° 14% - - 26° 83.7° 53.6° - - -
4/29 4:20pm 229 11 G 16 80° 13% - - 24° 83.7° 53.6° - - -
4/29 4:10pm 237 12 G 18 80° 13% - - 25° 83.7° 53.6° - - -
4/29 4:00pm 234 11 G 18 80° 15% - - 28° 83.7° 53.6° - - -
4/29 3:50pm 234 11 G 16 80° 16% - - 30° 83.7° 53.6° - - -
4/29 3:40pm 221 11 G 20 80° 17% - - 32° 83.7° 53.6° - - -
4/29 3:30pm 234 10 G 14 80° 15% - - 29° 83.7° 53.6° - - -
4/29 3:20pm 226 10 G 16 80° 15% - - 28° 83.7° 53.6° - - -
4/29 3:10pm 227 10 G 14 80° 12% - - 24° 83.7° 53.6° - - -
4/29 3:00pm 237 10 G 17 80° 13% - - 24° 83.7° 53.6° - - -
4/29 2:50pm 237 10 G 16 81° 13% - - 25° 83.7° 53.6° - - -
4/29 2:40pm 234 10 G 16 81° 13% - - 25° 83.7° 53.6° - - -
4/29 2:30pm 231 11 G 17 81° 12% - - 24° 83.7° 53.6° - - -
4/29 2:20pm 236 12 G 18 81° 13% - - 25° 83.7° 53.6° - - -
4/29 2:10pm 231 11 G 17 81° 13% - - 25° 83.7° 53.6° - - -
4/29 2:00pm 234 9 G 17 82° 12% - - 23° 83.7° 53.6° - - -
4/29 1:50pm 226 8 G 15 82° 11% - - 23° 83.7° 53.6° - - -
4/29 1:40pm 279 7 G 14 82° 10% - - 20° 83.7° 53.6° - - -
4/29 1:30pm 342 5 G 15 82° 8% - - 15° 83.3° 53.6° - - -
4/29 1:20pm 63 3 G 6 82° 8% - - 16° 83.3° 53.6° - - -
4/29 1:10pm 11 6 G 14 82° 8% - - 15° 83.3° 53.6° - - -
4/29 1:00pm 15 4 G 13 81° 8% - - 15° 81.7° 53.6° - - -
4/29 12:50pm 350 6 G 14 81° 8% - - 14° 81.6° 53.6° - - -
4/29 12:40pm 6 7 G 17 81° 8% - - 15° 81.6° 53.6° - - -
4/29 12:30pm 332 8 G 16 80° 9% - - 15° 80.9° 53.6° - - -
4/29 12:20pm 5 9 G 15 80° 9% - - 15° 80.9° 53.6° - - -
4/29 12:10pm 19 9 G 17 80° 9% - - 15° 80.9° 53.6° - - -
4/29 12:00pm 18 5 G 13 80° 8% - - 14° 80.9° 53.6° - - -
4/29 11:50am 55 5 G 11 80° 8% - - 14° 80.5° 53.6° - - -
4/29 11:40am 36 7 G 15 79° 8% - - 14° 80.4° 53.6° - - -
4/29 11:30am 43 6 G 13 79° 9% - - 14° 80° 53.6° - - -
4/29 11:20am 26 11 G 17 79° 9% - - 14° 80° 53.6° - - -
4/29 11:10am 24 10 G 18 78° 9% - - 14° 79.2° 53.6° - - -
4/29 11:00am 28 11 G 16 77° 9% - - 13° 77.8° 53.6° - - -
4/29 10:50am 15 13 G 21 77° 9% - - 14° 77.5° 53.6° - - -
4/29 10:40am 25 14 G 20 77° 9% - - 14° 77.5° 53.6° - - -
4/29 10:30am 15 12 G 19 76° 10% - - 15° 77.4° 53.6° - - -
4/29 10:20am 26 13 G 21 76° 10% - - 15° 76.6° 53.6° - - -
4/29 10:10am 22 12 G 18 75° 10% - - 16° 75.8° 53.6° - - -
4/29 10:00am 23 13 G 21 74° 11% - - 17° 75.8° 53.6° - - -
4/29 9:50am 20 15 G 21 74° 12% - - 17° 74.6° 53.6° - - -
4/29 9:40am 26 14 G 21 74° 12% - - 18° 74.1° 53.6° - - -
4/29 9:30am 21 13 G 18 73° 13% - - 19° 74.1° 53.6° - - -
4/29 9:20am 42 12 G 20 73° 13% - - 19° 74.1° 53.6° - - -
4/29 9:10am 36 13 G 21 73° 13% - - 19° 73.2° 53.6° - - -
4/29 9:00am 35 15 G 23 71° 14% - - 19° 72.2° 53.6° - - -
4/29 8:50am 34 13 G 21 71° 14% - - 19° 71.8° 53.6° - - -
4/29 8:40am 38 16 G 21 70° 13% - - 18° 71.1° 53.6° - - -
4/29 8:30am 26 16 G 23 70° 13% - - 17° 70.3° 53.6° - - -
4/29 8:20am 26 15 G 21 69° 14% - - 18° 69.6° 53.6° - - -
4/29 8:10am 25 15 G 24 69° 14% - - 18° 69.3° 53.6° - - -
4/29 8:00am 22 15 G 21 69° 14% - - 18° 69.1° 53.6° - - -
4/29 7:50am 22 14 G 22 69° 14% - - 17° 68.9° 53.6° - - -
4/29 7:40am 13 15 G 26 68° 14% - - 17° 68.6° 53.6° - - -
4/29 7:30am 11 16 G 23 68° 14% - - 17° 68.2° 53.6° - - -
4/29 7:20am 9 15 G 22 67° 14% - - 17° 67.7° 53.6° - - -
4/29 7:10am 9 15 G 24 67° 14% - - 16° 67.2° 53.6° - - -
4/29 7:00am 10 14 G 22 66° 14% - - 16° 67.1° 53.6° - - -
4/29 6:50am 4 13 G 20 66° 15% - - 16° 66.6° 53.6° - - -
4/29 6:40am 9 13 G 21 65° 15% - - 16° 66.6° 53.6° - - -
4/29 6:30am 11 13 G 18 65° 15% - - 16° 66.6° 53.6° - - -
4/29 6:20am 13 13 G 18 65° 15% - - 16° 66.6° 53.6° - - -
4/29 6:10am 17 14 G 22 65° 15% - - 16° 66.6° 53.6° - - -
4/29 6:00am 24 12 G 18 64° 15% - - 16° 66.6° 53.6° - - -
4/29 5:50am 19 13 G 20 65° 15% - - 16° 66.6° 53.6° - - -
4/29 5:40am 14 11 G 19 65° 15% - - 16° 66.6° 53.6° - - -
4/29 5:30am 16 10 G 14 65° 15% - - 16° 66.6° 53.6° - - -
4/29 5:20am 10 10 G 14 65° 15% - - 16° 66.6° 53.6° - - -
4/29 5:10am 10 11 G 19 65° 15% - - 16° 66.6° 53.6° - - -
4/29 5:00am 11 12 G 19 66° 15% - - 16° 66.6° 53.6° - - -
4/29 4:50am 15 11 G 17 65° 15% - - 16° 66.6° 53.6° - - -
4/29 4:40am 25 10 G 16 65° 15% - - 17° 66.6° 53.6° - - -
4/29 4:30am 24 11 G 15 66° 15% - - 17° 66.6° 53.6° - - -
4/29 4:20am 26 12 G 17 66° 15% - - 17° 66.6° 53.6° - - -
4/29 4:10am 27 11 G 18 65° 16% - - 18° 65.9° 53.6° - - -
4/29 4:00am 32 9 G 14 64° 18% - - 19° 65.5° 53.6° - - -
4/29 3:50am 35 8 G 11 63° 18% - - 20° 65.5° 53.6° - - -
4/29 3:40am 34 7 G 10 63° 19% - - 20° 65.5° 53.6° - - -
4/29 3:30am 45 9 G 13 65° 18% - - 20° 65.5° 53.6° - - -
4/29 3:20am 53 11 G 14 65° 19% - - 21° 65.5° 53.6° - - -
4/29 3:10am 61 10 G 15 64° 20% - - 22° 65.1° 53.6° - - -
4/29 3:00am 61 9 G 12 64° 21% - - 23° 65.1° 53.6° - - -
4/29 2:50am 60 8 G 10 63° 23% - - 25° 65.1° 53.6° - - -
4/29 2:40am 66 8 G 9 63° 26% - - 27° 65.1° 53.6° - - -
4/29 2:30am 67 7 G 10 63° 26% - - 28° 65.1° 53.6° - - -
4/29 2:20am 61 7 G 10 64° 27% - - 29° 65.1° 53.6° - - -
4/29 2:10am 63 8 G 11 64° 28% - - 30° 65.1° 53.6° - - -
4/29 2:00am 55 8 G 12 64° 28% - - 31° 65.1° 53.6° - - -
4/29 1:50am 49 7 G 9 64° 32% - - 34° 64.2° 53.6° - - -
4/29 1:40am 59 9 G 13 64° 38% - - 37° 64.2° 53.6° - - -
4/29 1:30am 60 9 G 12 64° 39% - - 38° 64.2° 53.6° - - -
4/29 1:20am 61 7 G 10 63° 41% - - 39° 63.7° 53.6° - - -
4/29 1:10am 72 7 G 9 61° 47% - - 40° 62.1° 53.6° - - -
4/29 1:00am 70 6 G 8 60° 50% - - 41° 60.3° 53.6° - - -
4/29 12:50am 73 6 G 8 59° 53% - - 42° 60.1° 53.6° - - -
4/29 12:40am 83 4 G 6 57° 59% - - 43° 58.1° 53.6° - - -
4/29 12:30am 75 4 G 6 57° 62% - - 44° 58.1° 53.6° - - -
4/29 12:20am 72 3 G 5 55° 67% - - 44° 57.5° 53.6° - - -
4/29 12:10am 75 1 G 3 54° 71% - - 45° 54.7° 53.6° - - -
4/29 12:00am 127 2 G 4 55° 70% - - 45° 76.8° 50.4° - - -
4/28 11:50pm 158 1 G 4 54° 73% - - 46° 76.8° 50.4° - - -
4/28 11:40pm 241 1 G 2 53° 77% - - 46° 76.8° 50.4° - - -
4/28 11:30pm 78 1 G 2 53° 78% - - 46° 76.8° 50.4° - - -
4/28 11:20pm 112 2 G 3 54° 79% - - 47° 76.8° 50.4° - - -
4/28 11:10pm 117 1 G 3 54° 80% - - 48° 76.8° 50.4° - - -
4/28 11:00pm 127 2 G 4 54° 78% - - 47° 76.8° 50.4° - - -
4/28 10:50pm 96 2 G 3 55° 77% - - 48° 76.8° 50.4° - - -
4/28 10:40pm 156 2 G 4 55° 78% - - 48° 76.8° 50.4° - - -
4/28 10:30pm 147 2 G 4 55° 77% - - 48° 76.8° 50.4° - - -
4/28 10:20pm 71 1 G 2 56° 75% - - 48° 76.8° 50.4° - - -
4/28 10:10pm 154 1 G 3 56° 76% - - 49° 76.8° 50.4° - - -
4/28 10:00pm 126 1 G 2 56° 76% - - 49° 76.8° 50.4° - - -
4/28 9:50pm 122 1 G 2 56° 75% - - 49° 76.8° 50.4° - - -
4/28 9:40pm 133 1 G 2 58° 73% - - 49° 76.8° 50.4° - - -
4/28 9:30pm 126 1 G 2 58° 73% - - 49° 76.8° 50.4° - - -
4/28 9:20pm 98 2 G 4 58° 72% - - 49° 76.8° 50.4° - - -
4/28 9:10pm 100 2 G 3 59° 72% - - 50° 76.8° 50.4° - - -
4/28 9:00pm 79 4 G 6 59° 71% - - 50° 76.8° 50.4° - - -
4/28 8:50pm 122 3 G 6 60° 69% - - 49° 76.8° 50.4° - - -
4/28 8:40pm 126 3 G 6 60° 66% - - 49° 76.8° 50.4° - - -
4/28 8:30pm 125 3 G 7 60° 63% - - 48° 76.8° 50.4° - - -
4/28 8:20pm 135 1 G 4 61° 60% - - 47° 76.8° 50.4° - - -
4/28 8:10pm 137 3 G 6 62° 58% - - 47° 76.8° 50.4° - - -
4/28 8:00pm 129 3 G 8 63° 56% - - 47° 76.8° 50.4° - - -
4/28 7:50pm 141 3 G 7 64° 53% - - 46° 76.8° 50.4° - - -
4/28 7:40pm 148 3 G 6 65° 50% - - 46° 76.8° 50.4° - - -
4/28 7:30pm 129 5 G 9 65° 50% - - 46° 76.8° 50.4° - - -
4/28 7:20pm 115 5 G 10 66° 46% - - 45° 76.8° 50.4° - - -
4/28 7:10pm 138 4 G 7 68° 43% - - 44° 76.8° 50.4° - - -
4/28 7:00pm 129 4 G 8 69° 41% - - 44° 76.8° 50.4° - - -
4/28 6:50pm 131 3 G 6 69° 40% - - 44° 76.8° 50.4° - - -
4/28 6:40pm 142 3 G 7 70° 40% - - 45° 76.8° 50.4° - - -
4/28 6:30pm 226 6 G 10 69° 41% - - 45° 76.8° 50.4° - - -
4/28 6:20pm 233 7 G 11 69° 42% - - 45° 76.8° 50.4° - - -
4/28 6:10pm 232 7 G 11 69° 42% - - 45° 76.8° 50.4° - - -
4/28 6:00pm 226 7 G 11 69° 43% - - 46° 76.8° 50.4° - - -